sensor_id;sensor_type;location;lat;lon;timestamp;pressure;altitude;pressure_sealevel;temperature;humidity
44351;BME280;62766;62.622;17.912;2023-04-26T00:02:18;99879.56;;;2.30;65.14
44351;BME280;62766;62.622;17.912;2023-04-26T00:04:50;99875.85;;;2.39;65.20
44351;BME280;62766;62.622;17.912;2023-04-26T00:07:19;99875.57;;;2.44;65.14
44351;BME280;62766;62.622;17.912;2023-04-26T00:09:47;99873.15;;;2.33;65.10
44351;BME280;62766;62.622;17.912;2023-04-26T00:12:17;99870.39;;;2.32;65.09
44351;BME280;62766;62.622;17.912;2023-04-26T00:14:46;99867.76;;;2.27;65.24
44351;BME280;62766;62.622;17.912;2023-04-26T00:17:15;99863.64;;;2.29;65.26
44351;BME280;62766;62.622;17.912;2023-04-26T00:19:44;99868.46;;;2.26;65.29
44351;BME280;62766;62.622;17.912;2023-04-26T00:22:13;99870.82;;;2.26;65.32
44351;BME280;62766;62.622;17.912;2023-04-26T00:24:41;99873.16;;;2.35;65.14
44351;BME280;62766;62.622;17.912;2023-04-26T00:27:10;99873.73;;;2.35;65.01
44351;BME280;62766;62.622;17.912;2023-04-26T00:29:38;99872.68;;;2.36;65.11
44351;BME280;62766;62.622;17.912;2023-04-26T00:32:07;99865.93;;;2.28;64.97
44351;BME280;62766;62.622;17.912;2023-04-26T00:34:36;99860.13;;;2.42;64.79
44351;BME280;62766;62.622;17.912;2023-04-26T00:37:05;99862.96;;;2.23;64.92
44351;BME280;62766;62.622;17.912;2023-04-26T00:39:34;99866.92;;;2.33;64.98
44351;BME280;62766;62.622;17.912;2023-04-26T00:42:02;99869.20;;;2.30;64.94
44351;BME280;62766;62.622;17.912;2023-04-26T00:44:30;99868.38;;;2.45;64.94
44351;BME280;62766;62.622;17.912;2023-04-26T00:46:59;99852.44;;;2.39;64.86
44351;BME280;62766;62.622;17.912;2023-04-26T00:49:27;99838.98;;;2.41;64.55
44351;BME280;62766;62.622;17.912;2023-04-26T00:51:56;99837.33;;;2.23;64.80
44351;BME280;62766;62.622;17.912;2023-04-26T00:54:25;99844.13;;;2.36;65.14
44351;BME280;62766;62.622;17.912;2023-04-26T00:56:53;99851.95;;;2.26;65.13
44351;BME280;62766;62.622;17.912;2023-04-26T00:59:22;99853.45;;;2.18;64.94
44351;BME280;62766;62.622;17.912;2023-04-26T00:59:23;99853.06;;;2.33;64.94
44351;BME280;62766;62.622;17.912;2023-04-26T00:59:25;99852.35;;;2.28;64.93
44351;BME280;62766;62.622;17.912;2023-04-26T00:59:26;99853.34;;;2.28;64.94
44351;BME280;62766;62.622;17.912;2023-04-26T00:59:28;99853.06;;;2.33;64.94
44351;BME280;62766;62.622;17.912;2023-04-26T00:59:30;99852.95;;;2.28;64.95
44351;BME280;62766;62.622;17.912;2023-04-26T00:59:32;99853.56;;;2.23;64.94
44351;BME280;62766;62.622;17.912;2023-04-26T00:59:33;99853.45;;;2.28;64.94
44351;BME280;62766;62.622;17.912;2023-04-26T00:59:35;99853.01;;;2.33;64.94
44351;BME280;62766;62.622;17.912;2023-04-26T00:59:37;99852.35;;;2.38;64.95
44351;BME280;62766;62.622;17.912;2023-04-26T00:59:39;99852.57;;;2.23;64.95
44351;BME280;62766;62.622;17.912;2023-04-26T00:59:40;99851.85;;;2.28;64.95
44351;BME280;62766;62.622;17.912;2023-04-26T00:59:42;99852.35;;;2.33;64.95
44351;BME280;62766;62.622;17.912;2023-04-26T00:59:44;99852.73;;;2.28;64.95
44351;BME280;62766;62.622;17.912;2023-04-26T00:59:45;99852.57;;;2.38;64.94
44351;BME280;62766;62.622;17.912;2023-04-26T00:59:47;99852.41;;;2.33;64.94
44351;BME280;62766;62.622;17.912;2023-04-26T00:59:49;99851.80;;;2.28;64.94
44351;BME280;62766;62.622;17.912;2023-04-26T00:59:51;99852.24;;;2.23;64.93
44351;BME280;62766;62.622;17.912;2023-04-26T00:59:53;99850.47;;;2.18;64.92
44351;BME280;62766;62.622;17.912;2023-04-26T00:59:54;99850.58;;;2.28;64.92
44351;BME280;62766;62.622;17.912;2023-04-26T00:59:56;99850.75;;;2.33;64.91
44351;BME280;62766;62.622;17.912;2023-04-26T00:59:58;99851.85;;;2.33;64.90
44351;BME280;62766;62.622;17.912;2023-04-26T00:59:59;99851.25;;;2.28;64.89
44351;BME280;62766;62.622;17.912;2023-04-26T01:00:02;99851.96;;;2.14;64.89
44351;BME280;62766;62.622;17.912;2023-04-26T01:00:04;99852.73;;;2.28;64.88
44351;BME280;62766;62.622;17.912;2023-04-26T01:00:06;99853.34;;;2.33;64.87
44351;BME280;62766;62.622;17.912;2023-04-26T01:00:08;99852.23;;;2.28;64.87
44351;BME280;62766;62.622;17.912;2023-04-26T01:00:09;99852.67;;;2.32;64.87
44351;BME280;62766;62.622;17.912;2023-04-26T01:00:11;99852.45;;;2.32;64.86
44351;BME280;62766;62.622;17.912;2023-04-26T01:00:12;99852.56;;;2.27;64.87
44351;BME280;62766;62.622;17.912;2023-04-26T01:02:59;99842.12;;;2.12;65.04
44351;BME280;62766;62.622;17.912;2023-04-26T01:05:28;99847.91;;;2.28;65.13
44351;BME280;62766;62.622;17.912;2023-04-26T01:07:56;99851.99;;;2.13;65.16
44351;BME280;62766;62.622;17.912;2023-04-26T01:10:25;99846.47;;;2.21;65.20
44351;BME280;62766;62.622;17.912;2023-04-26T01:12:55;99851.55;;;2.17;65.34
44351;BME280;62766;62.622;17.912;2023-04-26T01:15:24;99853.49;;;2.23;65.48
44351;BME280;62766;62.622;17.912;2023-04-26T01:17:54;99850.65;;;2.10;65.53
44351;BME280;62766;62.622;17.912;2023-04-26T01:20:22;99846.36;;;2.16;65.34
44351;BME280;62766;62.622;17.912;2023-04-26T01:22:50;99840.58;;;2.22;65.25
44351;BME280;62766;62.622;17.912;2023-04-26T01:25:20;99840.18;;;2.15;65.33
44351;BME280;62766;62.622;17.912;2023-04-26T01:27:49;99839.72;;;2.25;65.39
44351;BME280;62766;62.622;17.912;2023-04-26T01:30:18;99839.78;;;2.26;65.14
44351;BME280;62766;62.622;17.912;2023-04-26T01:32:46;99832.35;;;2.31;65.12
44351;BME280;62766;62.622;17.912;2023-04-26T01:35:15;99835.53;;;2.24;64.88
44351;BME280;62766;62.622;17.912;2023-04-26T01:37:44;99833.26;;;2.20;65.15
44351;BME280;62766;62.622;17.912;2023-04-26T01:40:13;99829.16;;;2.08;65.43
44351;BME280;62766;62.622;17.912;2023-04-26T01:42:41;99829.32;;;2.22;65.72
44351;BME280;62766;62.622;17.912;2023-04-26T01:45:10;99832.53;;;2.03;65.68
44351;BME280;62766;62.622;17.912;2023-04-26T01:47:38;99831.01;;;2.09;66.00
44351;BME280;62766;62.622;17.912;2023-04-26T01:50:08;99829.26;;;2.06;66.19
44351;BME280;62766;62.622;17.912;2023-04-26T01:52:37;99832.49;;;2.05;66.21
44351;BME280;62766;62.622;17.912;2023-04-26T01:55:06;99836.00;;;2.13;66.29
44351;BME280;62766;62.622;17.912;2023-04-26T01:57:35;99833.00;;;2.16;66.22
44351;BME280;62766;62.622;17.912;2023-04-26T02:00:06;99838.86;;;2.24;66.21
44351;BME280;62766;62.622;17.912;2023-04-26T02:02:34;99839.24;;;2.23;66.26
44351;BME280;62766;62.622;17.912;2023-04-26T02:05:03;99829.97;;;2.05;66.10
44351;BME280;62766;62.622;17.912;2023-04-26T02:07:31;99826.47;;;2.02;66.38
44351;BME280;62766;62.622;17.912;2023-04-26T02:09:59;99824.81;;;2.07;66.36
44351;BME280;62766;62.622;17.912;2023-04-26T02:12:28;99823.43;;;2.11;66.41
44351;BME280;62766;62.622;17.912;2023-04-26T02:14:57;99824.47;;;2.06;66.41
44351;BME280;62766;62.622;17.912;2023-04-26T02:17:25;99825.58;;;2.06;66.54
44351;BME280;62766;62.622;17.912;2023-04-26T02:19:54;99824.59;;;2.12;66.52
44351;BME280;62766;62.622;17.912;2023-04-26T02:22:23;99816.86;;;2.05;66.30
44351;BME280;62766;62.622;17.912;2023-04-26T02:24:51;99822.59;;;2.08;66.36
44351;BME280;62766;62.622;17.912;2023-04-26T02:27:19;99826.90;;;2.10;66.50
44351;BME280;62766;62.622;17.912;2023-04-26T02:29:48;99821.60;;;1.94;66.49
44351;BME280;62766;62.622;17.912;2023-04-26T02:32:17;99820.19;;;2.25;66.42
44351;BME280;62766;62.622;17.912;2023-04-26T02:34:44;99814.87;;;2.02;66.46
44351;BME280;62766;62.622;17.912;2023-04-26T02:37:13;99811.00;;;2.11;66.60
44351;BME280;62766;62.622;17.912;2023-04-26T02:39:41;99812.30;;;2.13;66.60
44351;BME280;62766;62.622;17.912;2023-04-26T02:42:10;99812.36;;;1.98;66.59
44351;BME280;62766;62.622;17.912;2023-04-26T02:44:38;99815.08;;;2.05;66.93
44351;BME280;62766;62.622;17.912;2023-04-26T02:47:07;99815.49;;;1.98;66.95
44351;BME280;62766;62.622;17.912;2023-04-26T02:49:35;99818.19;;;1.98;66.83
44351;BME280;62766;62.622;17.912;2023-04-26T02:52:03;99821.20;;;1.97;67.04
44351;BME280;62766;62.622;17.912;2023-04-26T02:54:32;99825.59;;;2.05;67.10
44351;BME280;62766;62.622;17.912;2023-04-26T02:57:01;99820.63;;;2.05;66.90
44351;BME280;62766;62.622;17.912;2023-04-26T02:59:29;99813.93;;;2.06;67.04
44351;BME280;62766;62.622;17.912;2023-04-26T03:01:58;99809.16;;;2.07;67.07
44351;BME280;62766;62.622;17.912;2023-04-26T03:04:26;99811.92;;;1.98;67.08
44351;BME280;62766;62.622;17.912;2023-04-26T03:06:55;99813.09;;;2.10;67.11
44351;BME280;62766;62.622;17.912;2023-04-26T03:09:23;99812.92;;;2.00;67.05
44351;BME280;62766;62.622;17.912;2023-04-26T03:11:52;99811.51;;;2.12;66.89
44351;BME280;62766;62.622;17.912;2023-04-26T03:14:20;99808.20;;;2.17;66.87
44351;BME280;62766;62.622;17.912;2023-04-26T03:16:48;99812.02;;;2.09;66.81
44351;BME280;62766;62.622;17.912;2023-04-26T03:19:17;99814.60;;;2.09;66.96
44351;BME280;62766;62.622;17.912;2023-04-26T03:21:45;99808.81;;;2.19;66.69
44351;BME280;62766;62.622;17.912;2023-04-26T03:24:14;99806.11;;;2.14;66.59
44351;BME280;62766;62.622;17.912;2023-04-26T03:26:44;99805.63;;;2.21;66.37
44351;BME280;62766;62.622;17.912;2023-04-26T03:29:13;99808.95;;;2.18;66.26
44351;BME280;62766;62.622;17.912;2023-04-26T03:31:41;99804.76;;;2.18;66.39
44351;BME280;62766;62.622;17.912;2023-04-26T03:34:09;99802.10;;;2.32;66.18
44351;BME280;62766;62.622;17.912;2023-04-26T03:36:38;99794.56;;;2.31;66.06
44351;BME280;62766;62.622;17.912;2023-04-26T03:39:06;99794.44;;;2.15;66.23
44351;BME280;62766;62.622;17.912;2023-04-26T03:41:35;99795.33;;;2.31;66.21
44351;BME280;62766;62.622;17.912;2023-04-26T03:44:03;99793.04;;;2.28;66.22
44351;BME280;62766;62.622;17.912;2023-04-26T03:46:32;99792.90;;;2.26;66.24
44351;BME280;62766;62.622;17.912;2023-04-26T03:49:00;99791.98;;;2.38;66.16
44351;BME280;62766;62.622;17.912;2023-04-26T03:51:28;99792.29;;;2.38;66.05
44351;BME280;62766;62.622;17.912;2023-04-26T03:53:57;99792.58;;;2.39;65.93
44351;BME280;62766;62.622;17.912;2023-04-26T03:56:25;99794.97;;;2.37;65.82
44351;BME280;62766;62.622;17.912;2023-04-26T03:58:54;99796.39;;;2.41;65.68
44351;BME280;62766;62.622;17.912;2023-04-26T04:03:29;99799.06;;;2.19;65.60
44351;BME280;62766;62.622;17.912;2023-04-26T04:05:58;99798.61;;;2.28;65.61
44351;BME280;62766;62.622;17.912;2023-04-26T04:08:27;99800.65;;;2.50;65.39
44351;BME280;62766;62.622;17.912;2023-04-26T04:10:55;99802.72;;;2.50;65.18
44351;BME280;62766;62.622;17.912;2023-04-26T04:13:23;99794.47;;;2.45;65.20
44351;BME280;62766;62.622;17.912;2023-04-26T04:15:52;99791.38;;;2.57;65.04
44351;BME280;62766;62.622;17.912;2023-04-26T04:18:20;99793.04;;;2.59;64.95
44351;BME280;62766;62.622;17.912;2023-04-26T04:20:49;99792.80;;;2.59;64.81
44351;BME280;62766;62.622;17.912;2023-04-26T04:23:17;99790.28;;;2.61;64.62
44351;BME280;62766;62.622;17.912;2023-04-26T04:25:46;99783.10;;;2.72;64.47
44351;BME280;62766;62.622;17.912;2023-04-26T04:28:14;99779.01;;;2.66;64.67
44351;BME280;62766;62.622;17.912;2023-04-26T04:30:42;99779.70;;;2.70;64.39
44351;BME280;62766;62.622;17.912;2023-04-26T04:33:11;99779.41;;;2.68;64.55
44351;BME280;62766;62.622;17.912;2023-04-26T04:35:40;99780.43;;;2.62;64.71
44351;BME280;62766;62.622;17.912;2023-04-26T04:38:08;99785.17;;;2.81;64.69
44351;BME280;62766;62.622;17.912;2023-04-26T04:40:36;99779.61;;;2.90;64.32
44351;BME280;62766;62.622;17.912;2023-04-26T04:43:04;99778.50;;;2.79;64.07
44351;BME280;62766;62.622;17.912;2023-04-26T04:45:33;99781.75;;;2.78;64.04
44351;BME280;62766;62.622;17.912;2023-04-26T04:48:02;99778.11;;;2.88;63.86
44351;BME280;62766;62.622;17.912;2023-04-26T04:50:30;99776.08;;;2.75;64.15
44351;BME280;62766;62.622;17.912;2023-04-26T04:52:58;99778.78;;;2.71;64.15
44351;BME280;62766;62.622;17.912;2023-04-26T04:55:28;99778.29;;;2.79;64.24
44351;BME280;62766;62.622;17.912;2023-04-26T04:57:57;99776.93;;;2.78;64.14
44351;BME280;62766;62.622;17.912;2023-04-26T05:00:25;99772.53;;;2.93;63.98
44351;BME280;62766;62.622;17.912;2023-04-26T05:02:54;99773.23;;;3.06;63.76
44351;BME280;62766;62.622;17.912;2023-04-26T05:05:22;99770.75;;;3.21;63.62
44351;BME280;62766;62.622;17.912;2023-04-26T05:07:51;99775.88;;;3.17;63.30
44351;BME280;62766;62.622;17.912;2023-04-26T05:10:19;99777.51;;;3.19;62.99
44351;BME280;62766;62.622;17.912;2023-04-26T05:12:47;99782.21;;;3.38;62.64
44351;BME280;62766;62.622;17.912;2023-04-26T05:15:16;99781.17;;;3.31;62.60
44351;BME280;62766;62.622;17.912;2023-04-26T05:17:44;99781.05;;;3.34;62.29
44351;BME280;62766;62.622;17.912;2023-04-26T05:20:13;99781.95;;;3.41;62.30
44351;BME280;62766;62.622;17.912;2023-04-26T05:22:41;99781.54;;;3.44;62.28
44351;BME280;62766;62.622;17.912;2023-04-26T05:25:09;99784.51;;;3.56;61.91
44351;BME280;62766;62.622;17.912;2023-04-26T05:27:38;99784.25;;;3.66;61.51
44351;BME280;62766;62.622;17.912;2023-04-26T05:30:07;99783.22;;;3.73;61.27
44351;BME280;62766;62.622;17.912;2023-04-26T05:32:36;99786.82;;;3.71;60.92
44351;BME280;62766;62.622;17.912;2023-04-26T05:35:05;99784.27;;;3.67;60.92
44351;BME280;62766;62.622;17.912;2023-04-26T05:37:33;99786.47;;;3.77;60.81
44351;BME280;62766;62.622;17.912;2023-04-26T05:40:02;99782.55;;;3.60;61.06
44351;BME280;62766;62.622;17.912;2023-04-26T05:42:30;99781.89;;;3.70;61.10
44351;BME280;62766;62.622;17.912;2023-04-26T05:44:59;99782.28;;;3.72;61.11
44351;BME280;62766;62.622;17.912;2023-04-26T05:47:28;99778.70;;;3.72;61.06
44351;BME280;62766;62.622;17.912;2023-04-26T05:49:57;99781.02;;;3.67;61.12
44351;BME280;62766;62.622;17.912;2023-04-26T05:52:26;99782.80;;;3.84;61.10
44351;BME280;62766;62.622;17.912;2023-04-26T05:54:54;99778.73;;;3.90;60.99
44351;BME280;62766;62.622;17.912;2023-04-26T05:57:22;99776.68;;;3.83;60.67
44351;BME280;62766;62.622;17.912;2023-04-26T05:59:51;99776.31;;;3.97;60.81
44351;BME280;62766;62.622;17.912;2023-04-26T06:02:19;99776.48;;;3.91;60.84
44351;BME280;62766;62.622;17.912;2023-04-26T06:04:48;99774.95;;;3.88;60.78
44351;BME280;62766;62.622;17.912;2023-04-26T06:07:16;99774.34;;;3.98;60.62
44351;BME280;62766;62.622;17.912;2023-04-26T06:09:44;99768.71;;;3.98;60.54
44351;BME280;62766;62.622;17.912;2023-04-26T06:12:13;99767.29;;;3.98;60.58
44351;BME280;62766;62.622;17.912;2023-04-26T06:14:41;99760.29;;;4.03;60.43
44351;BME280;62766;62.622;17.912;2023-04-26T06:17:10;99759.57;;;4.21;60.16
44351;BME280;62766;62.622;17.912;2023-04-26T06:19:38;99757.81;;;4.10;60.19
44351;BME280;62766;62.622;17.912;2023-04-26T06:22:06;99757.26;;;4.20;60.10
44351;BME280;62766;62.622;17.912;2023-04-26T06:24:35;99755.33;;;4.20;59.89
44351;BME280;62766;62.622;17.912;2023-04-26T06:27:03;99757.32;;;4.25;60.01
44351;BME280;62766;62.622;17.912;2023-04-26T06:29:32;99755.23;;;4.22;59.81
44351;BME280;62766;62.622;17.912;2023-04-26T06:32:00;99754.29;;;4.34;59.54
44351;BME280;62766;62.622;17.912;2023-04-26T06:34:29;99756.28;;;4.39;59.63
44351;BME280;62766;62.622;17.912;2023-04-26T06:36:58;99757.71;;;4.32;59.66
44351;BME280;62766;62.622;17.912;2023-04-26T06:39:28;99756.61;;;4.34;59.87
44351;BME280;62766;62.622;17.912;2023-04-26T06:41:57;99752.63;;;4.50;59.97
44351;BME280;62766;62.622;17.912;2023-04-26T06:44:25;99751.30;;;4.49;59.56
44351;BME280;62766;62.622;17.912;2023-04-26T06:46:54;99755.34;;;4.46;59.50
44351;BME280;62766;62.622;17.912;2023-04-26T06:49:23;99754.51;;;4.51;59.48
44351;BME280;62766;62.622;17.912;2023-04-26T06:51:52;99756.22;;;4.58;59.42
44351;BME280;62766;62.622;17.912;2023-04-26T06:54:21;99758.64;;;4.59;59.55
44351;BME280;62766;62.622;17.912;2023-04-26T06:56:49;99758.31;;;4.66;59.15
44351;BME280;62766;62.622;17.912;2023-04-26T06:59:17;99759.08;;;4.74;59.05
44351;BME280;62766;62.622;17.912;2023-04-26T07:01:47;99755.59;;;4.74;59.12
44351;BME280;62766;62.622;17.912;2023-04-26T07:04:16;99752.97;;;4.94;58.89
44351;BME280;62766;62.622;17.912;2023-04-26T07:06:45;99755.78;;;5.00;58.35
44351;BME280;62766;62.622;17.912;2023-04-26T07:09:13;99755.27;;;5.06;58.32
44351;BME280;62766;62.622;17.912;2023-04-26T07:11:41;99754.35;;;5.12;57.95
44351;BME280;62766;62.622;17.912;2023-04-26T07:14:09;99757.27;;;5.13;57.86
44351;BME280;62766;62.622;17.912;2023-04-26T07:16:38;99761.36;;;5.19;57.38
44351;BME280;62766;62.622;17.912;2023-04-26T07:19:06;99762.86;;;5.16;57.47
44351;BME280;62766;62.622;17.912;2023-04-26T07:21:34;99762.31;;;5.08;57.53
44351;BME280;62766;62.622;17.912;2023-04-26T07:24:03;99758.21;;;5.14;57.52
44351;BME280;62766;62.622;17.912;2023-04-26T07:26:31;99758.67;;;5.25;57.20
44351;BME280;62766;62.622;17.912;2023-04-26T07:29:00;99756.87;;;5.39;57.20
44351;BME280;62766;62.622;17.912;2023-04-26T07:31:29;99757.82;;;5.47;56.92
44351;BME280;62766;62.622;17.912;2023-04-26T07:33:58;99760.27;;;5.62;56.74
44351;BME280;62766;62.622;17.912;2023-04-26T07:36:27;99757.76;;;5.74;56.56
44351;BME280;62766;62.622;17.912;2023-04-26T07:38:55;99757.25;;;5.93;55.97
44351;BME280;62766;62.622;17.912;2023-04-26T07:41:23;99760.11;;;6.05;55.42
44351;BME280;62766;62.622;17.912;2023-04-26T07:43:51;99764.64;;;6.12;55.47
44351;BME280;62766;62.622;17.912;2023-04-26T07:46:20;99766.93;;;6.18;54.83
44351;BME280;62766;62.622;17.912;2023-04-26T07:48:48;99766.86;;;6.21;54.61
44351;BME280;62766;62.622;17.912;2023-04-26T07:51:17;99769.10;;;6.39;54.79
44351;BME280;62766;62.622;17.912;2023-04-26T07:53:45;99771.98;;;6.44;54.38
44351;BME280;62766;62.622;17.912;2023-04-26T07:56:13;99775.54;;;6.49;54.30
44351;BME280;62766;62.622;17.912;2023-04-26T07:58:42;99776.31;;;6.55;53.69
44351;BME280;62766;62.622;17.912;2023-04-26T08:01:10;99776.45;;;6.69;53.69
44351;BME280;62766;62.622;17.912;2023-04-26T08:03:38;99775.92;;;6.63;53.55
44351;BME280;62766;62.622;17.912;2023-04-26T08:06:07;99773.95;;;6.67;53.51
44351;BME280;62766;62.622;17.912;2023-04-26T08:08:35;99775.66;;;6.53;53.69
44351;BME280;62766;62.622;17.912;2023-04-26T08:11:06;99772.53;;;6.34;53.77
44351;BME280;62766;62.622;17.912;2023-04-26T08:13:35;99767.24;;;6.33;54.06
44351;BME280;62766;62.622;17.912;2023-04-26T08:16:04;99765.57;;;6.28;54.10
44351;BME280;62766;62.622;17.912;2023-04-26T08:18:32;99765.46;;;6.48;53.85
44351;BME280;62766;62.622;17.912;2023-04-26T08:21:01;99768.84;;;6.53;53.50
44351;BME280;62766;62.622;17.912;2023-04-26T08:23:32;99771.35;;;6.65;53.50
44351;BME280;62766;62.622;17.912;2023-04-26T08:26:00;99769.15;;;6.72;53.08
44351;BME280;62766;62.622;17.912;2023-04-26T08:28:30;99767.71;;;6.79;52.91
44351;BME280;62766;62.622;17.912;2023-04-26T08:30:59;99775.17;;;6.86;52.85
44351;BME280;62766;62.622;17.912;2023-04-26T08:33:28;99773.78;;;7.05;52.77
44351;BME280;62766;62.622;17.912;2023-04-26T08:35:58;99778.29;;;6.98;52.76
44351;BME280;62766;62.622;17.912;2023-04-26T08:38:26;99779.33;;;6.90;52.66
44351;BME280;62766;62.622;17.912;2023-04-26T08:40:54;99777.65;;;7.12;52.29
44351;BME280;62766;62.622;17.912;2023-04-26T08:43:27;99781.60;;;7.01;52.34
44351;BME280;62766;62.622;17.912;2023-04-26T08:45:57;99777.10;;;7.16;52.49
44351;BME280;62766;62.622;17.912;2023-04-26T08:48:29;99775.97;;;7.15;52.32
44351;BME280;62766;62.622;17.912;2023-04-26T08:51:00;99774.11;;;7.28;52.02
44351;BME280;62766;62.622;17.912;2023-04-26T08:53:29;99774.16;;;7.35;52.18
44351;BME280;62766;62.622;17.912;2023-04-26T08:55:59;99774.45;;;7.49;51.80
44351;BME280;62766;62.622;17.912;2023-04-26T08:58:29;99777.61;;;7.65;51.44
44351;BME280;62766;62.622;17.912;2023-04-26T09:00:58;99774.18;;;7.49;51.58
44351;BME280;62766;62.622;17.912;2023-04-26T09:03:30;99769.83;;;7.51;51.25
44351;BME280;62766;62.622;17.912;2023-04-26T09:05:59;99768.21;;;7.57;51.37
44351;BME280;62766;62.622;17.912;2023-04-26T09:08:29;99770.07;;;7.69;51.37
44351;BME280;62766;62.622;17.912;2023-04-26T09:10:58;99771.61;;;7.51;51.38
44351;BME280;62766;62.622;17.912;2023-04-26T09:13:28;99778.20;;;7.81;51.08
44351;BME280;62766;62.622;17.912;2023-04-26T09:15:57;99778.48;;;8.04;50.85
44351;BME280;62766;62.622;17.912;2023-04-26T09:18:25;99776.53;;;8.10;50.78
44351;BME280;62766;62.622;17.912;2023-04-26T09:21:02;99772.75;;;8.09;50.55
44351;BME280;62766;62.622;17.912;2023-04-26T09:23:31;99767.66;;;8.12;50.38
44351;BME280;62766;62.622;17.912;2023-04-26T09:26:16;99763.83;;;8.15;50.09
44351;BME280;62766;62.622;17.912;2023-04-26T09:28:45;99767.08;;;8.33;50.02
44351;BME280;62766;62.622;17.912;2023-04-26T09:31:35;99760.15;;;8.60;49.47
44351;BME280;62766;62.622;17.912;2023-04-26T09:34:04;99760.24;;;8.68;48.91
44351;BME280;62766;62.622;17.912;2023-04-26T09:36:45;99758.70;;;8.91;48.93
44351;BME280;62766;62.622;17.912;2023-04-26T09:39:13;99754.55;;;8.97;48.47
44351;BME280;62766;62.622;17.912;2023-04-26T09:41:42;99756.62;;;8.86;48.50
44351;BME280;62766;62.622;17.912;2023-04-26T09:44:20;99755.56;;;8.82;48.51
44351;BME280;62766;62.622;17.912;2023-04-26T09:46:59;99755.24;;;8.81;48.47
44351;BME280;62766;62.622;17.912;2023-04-26T09:49:31;99752.92;;;8.75;48.44
44351;BME280;62766;62.622;17.912;2023-04-26T09:52:01;99754.35;;;8.81;48.68
44351;BME280;62766;62.622;17.912;2023-04-26T09:54:38;99751.08;;;8.68;48.53
44351;BME280;62766;62.622;17.912;2023-04-26T09:57:06;99749.66;;;8.62;48.71
44351;BME280;62766;62.622;17.912;2023-04-26T09:59:39;99747.49;;;8.71;48.75
44351;BME280;62766;62.622;17.912;2023-04-26T10:03:14;99745.52;;;8.57;48.86
44351;BME280;62766;62.622;17.912;2023-04-26T10:05:43;99743.92;;;8.73;48.73
44351;BME280;62766;62.622;17.912;2023-04-26T10:08:13;99746.97;;;8.82;48.61
44351;BME280;62766;62.622;17.912;2023-04-26T10:10:42;99744.60;;;8.94;48.59
44351;BME280;62766;62.622;17.912;2023-04-26T10:13:10;99740.91;;;9.21;47.79
44351;BME280;62766;62.622;17.912;2023-04-26T10:15:39;99736.92;;;9.28;47.72
44351;BME280;62766;62.622;17.912;2023-04-26T10:18:08;99738.62;;;9.40;47.45
44351;BME280;62766;62.622;17.912;2023-04-26T10:20:39;99740.40;;;9.44;47.29
44351;BME280;62766;62.622;17.912;2023-04-26T10:23:12;99743.24;;;9.49;46.93
44351;BME280;62766;62.622;17.912;2023-04-26T10:25:44;99745.04;;;9.43;47.01
44351;BME280;62766;62.622;17.912;2023-04-26T10:28:12;99745.95;;;9.28;47.18
44351;BME280;62766;62.622;17.912;2023-04-26T10:30:57;99745.60;;;9.30;47.36
44351;BME280;62766;62.622;17.912;2023-04-26T10:33:26;99744.58;;;9.13;47.39
44351;BME280;62766;62.622;17.912;2023-04-26T10:36:11;99748.49;;;8.94;47.76
44351;BME280;62766;62.622;17.912;2023-04-26T10:38:41;99748.49;;;9.32;47.82
44351;BME280;62766;62.622;17.912;2023-04-26T10:41:45;99749.03;;;9.36;47.47
44351;BME280;62766;62.622;17.912;2023-04-26T10:44:46;99743.66;;;9.57;47.09
44351;BME280;62766;62.622;17.912;2023-04-26T10:47:25;99741.06;;;9.26;47.17
44351;BME280;62766;62.622;17.912;2023-04-26T10:50:03;99744.70;;;9.13;47.29
44351;BME280;62766;62.622;17.912;2023-04-26T10:52:33;99747.97;;;9.11;47.82
44351;BME280;62766;62.622;17.912;2023-04-26T10:55:03;99745.92;;;9.13;48.03
44351;BME280;62766;62.622;17.912;2023-04-26T10:57:49;99741.78;;;9.15;48.27
44351;BME280;62766;62.622;17.912;2023-04-26T11:00:24;99746.52;;;9.11;48.10
44351;BME280;62766;62.622;17.912;2023-04-26T11:02:56;99751.54;;;9.28;48.10
44351;BME280;62766;62.622;17.912;2023-04-26T11:05:50;99751.71;;;9.34;47.86
44351;BME280;62766;62.622;17.912;2023-04-26T11:08:25;99754.94;;;9.28;47.98
44351;BME280;62766;62.622;17.912;2023-04-26T11:11:04;99753.29;;;9.07;48.03
44351;BME280;62766;62.622;17.912;2023-04-26T11:13:32;99753.21;;;8.94;48.31
44351;BME280;62766;62.622;17.912;2023-04-26T11:16:03;99752.98;;;9.09;48.48
44351;BME280;62766;62.622;17.912;2023-04-26T11:18:33;99752.03;;;8.91;48.74
44351;BME280;62766;62.622;17.912;2023-04-26T11:21:03;99749.33;;;8.77;49.18
44351;BME280;62766;62.622;17.912;2023-04-26T11:23:32;99749.68;;;8.62;49.51
44351;BME280;62766;62.622;17.912;2023-04-26T11:26:01;99749.95;;;8.51;49.82
44351;BME280;62766;62.622;17.912;2023-04-26T11:28:30;99752.22;;;8.58;49.93
44351;BME280;62766;62.622;17.912;2023-04-26T11:31:01;99761.76;;;8.17;50.29
44351;BME280;62766;62.622;17.912;2023-04-26T11:33:29;99768.48;;;8.12;50.71
44351;BME280;62766;62.622;17.912;2023-04-26T11:35:57;99768.44;;;8.06;51.26
44351;BME280;62766;62.622;17.912;2023-04-26T11:38:27;99766.19;;;8.09;51.49
44351;BME280;62766;62.622;17.912;2023-04-26T11:40:57;99773.19;;;8.00;51.37
44351;BME280;62766;62.622;17.912;2023-04-26T11:43:33;99779.15;;;8.17;51.63
44351;BME280;62766;62.622;17.912;2023-04-26T11:46:02;99778.28;;;8.10;51.71
44351;BME280;62766;62.622;17.912;2023-04-26T11:48:32;99774.94;;;8.07;51.64
44351;BME280;62766;62.622;17.912;2023-04-26T11:51:02;99772.98;;;7.99;52.07
44351;BME280;62766;62.622;17.912;2023-04-26T11:53:35;99775.59;;;7.90;52.34
44351;BME280;62766;62.622;17.912;2023-04-26T11:56:04;99775.23;;;7.79;52.51
44351;BME280;62766;62.622;17.912;2023-04-26T11:58:33;99776.42;;;7.63;52.70
44351;BME280;62766;62.622;17.912;2023-04-26T12:01:01;99775.12;;;7.65;52.98
44351;BME280;62766;62.622;17.912;2023-04-26T12:03:30;99773.26;;;7.33;53.39
44351;BME280;62766;62.622;17.912;2023-04-26T12:05:58;99772.86;;;7.32;53.59